MAYO2: W. D. Mayo Lock And Dam (L&D 14)

Data processed at Thu Nov 09 2017 15:31


All information presented herein is the property of the government of the United States of America and may be revised or deleted at any time without prior notice.
Dissemination of this information without the expressed written consent of the Public Affairs Office, Tulsa District U.S. Army Corps of Engineers is strictly prohibited.
These data are gathered electronically and, as presented, have not undergone any form of quality control. These data are not guaranteed to be valid or correct.
Go to home page.
Go to station list.

Upstream stations:

Downstream station:
Previous Day
Next Day
Current Day
    
SHEF ID:       MAYO2     W. D. Mayo Lock And Dam (L&D 14)
STATION TYPE:  NAVIGATION LOCK
Normal Pool:  Bottom =   411.00, Top =   413.00

               PRECIP ELEVATION   STORAGE   TW-ELEV LOCK-ELEV    INFLOW   RELEASE  AIR-TEMP  WIND-DIRWIND-SPEED REL-HUMID SOLAR-RAD   VOLTAGE  BAT-LOAD
                   in        ft     ac-ft        ft        ft       cfs       cfs         F       deg       mph         %      W/m2      volt      volt
              Ccp-Rev   Ccp-Rev   Ccp-Rev   Ccp-Rev   Ccp-Rev  Regi-Rev  Regi-Rev   Ccp-Rev   Ccp-Rev   Ccp-Rev   Ccp-Rev   Ccp-Rev   Ccp-Rev   Ccp-Rev
(US/Central)
11/08 00:00      0.00    412.54     15039    391.58    391.74        70         0     48.04    357.40      3.50     91.29      0.00     13.60     13.44
11/08 01:00      0.00    412.56     15070    391.83    391.97        26         0     48.40    350.40      3.20     88.96      0.00     13.61     13.44
11/08 02:00      0.00    412.49     14959    391.88    392.01       549         0     48.58    334.10      5.30     87.49      0.00     13.61     13.44
11/08 03:00      0.00    412.52     15007    391.80    391.95      1073         0     48.58    337.80      5.00     85.94      0.00     13.60     13.44
11/08 04:00      0.00    412.50     14975    391.68    391.81      1592         0     48.92    331.50      3.90     83.19      0.00     13.60     13.44
11/08 05:00      0.00    413.21     16106    391.88    392.00      1970         0     49.17    336.40      4.60     80.95      0.00     13.60     13.44
11/08 06:00      0.00    412.93     15659    394.50    413.14      6822         0     48.90      7.80      2.30     80.56      0.00     13.60     13.44
11/08 07:00      0.00    413.03     15818    394.99    395.13     14541         0     48.60    339.80      3.10     80.21      0.00     13.60     13.44
11/08 08:00      0.00    412.25     14577    394.89    395.09     21194     39304     48.90    332.50      4.90     78.78     25.70     13.60     13.44
11/08 09:00      0.00    412.36     14752    393.13    412.49     24401     39108     49.44    346.30      3.80     77.58     71.80     13.59     13.44
11/08 10:00      0.00    412.22     14530    392.66    412.32     26939     38589     50.05      1.80      4.30     73.97    129.80     13.60     13.44
11/08 11:00      0.00    412.32     14689    392.61    412.34     25188     16742     50.14    342.60      5.40     71.89    103.10     13.60     13.44
11/08 12:00      0.00    412.21     14514    392.88    412.30     20629     16733     50.54    342.80      4.60     69.12    126.20     13.59     13.44
11/08 13:00      0.00    412.15     14418    392.76    412.24     16288     16692     51.89     27.40      2.40     67.00    211.40     13.60     13.44
11/08 14:00      0.00    412.24     14562    392.76    412.32     16627     16700     52.72     13.30      3.20     65.34    161.90     13.60     13.44
11/08 15:00      0.00    412.11     14355    392.81    392.99     17170     16690     53.02     26.60      2.80     64.80    106.90     13.60     13.44
11/08 16:00      0.00    412.30     14657    392.83    392.97     19138     16704     53.35     20.10      3.20     63.50     96.50     13.60     13.44
11/08 17:00      0.00    412.33     14705    394.28    394.48     20961     16756     53.38      0.80      2.60     62.69     31.80     13.60     13.44
11/08 18:00      0.00    412.78     15420    392.94    393.08     21974     16721     52.32    292.30      1.70     65.93      0.00     13.60     13.44
11/08 19:00      0.00    412.39     14800    392.54    392.69     20152     35050     47.95    235.20      1.10     79.05      0.00     13.59     13.44
11/08 20:00      0.00    412.52     15007    391.53    391.70     16724     16749     44.94    237.10      1.10     86.25      0.00     13.59     13.44
11/08 21:00      0.00    412.23     14546    391.98    392.13     11655     16833     42.82    237.60      0.90     90.36      0.00     13.59     13.44
11/08 22:00      0.00    412.44     14880    392.09    392.22      6152         0     43.20    291.60      0.50     92.84      0.00     13.59     13.44
11/08 23:00      0.00    412.25     14577    392.00    392.13      2336         0     42.46    244.50      0.50     94.19      0.00     13.59     13.44